Wednesday, October 18, 2017, 3:39 AM EDT
Back to Local

KUKT, Quakertown, Quakertown Airport

Location: Quakertown, PA, United States Lat: 40.435
Local Time: 3:39 AM EDT ( 7:39 GMT) Lon: -75.382
Time Zone: US/Eastern Elev: 524 ft

Show me the last for .
Show Decoded

2017-10-18 03:15 METAR KUKT 180715Z AUTO 00000KT 10SM CLR 03/03 A3030 RMK AO1 =
2017-10-18 02:55 METAR KUKT 180655Z AUTO 00000KT 10SM CLR 03/03 A3031 RMK AO1 =
2017-10-18 02:35 METAR KUKT 180635Z AUTO 00000KT 10SM CLR 03/03 A3032 RMK AO1 =
2017-10-18 02:15 METAR KUKT 180615Z AUTO 00000KT 10SM CLR 03/03 A3032 RMK AO1 =
2017-10-18 01:55 METAR KUKT 180555Z AUTO 00000KT 10SM CLR 03/03 A3031 RMK AO1 =
2017-10-18 01:35 METAR KUKT 180535Z AUTO 00000KT 10SM CLR 03/03 A3031 RMK AO1 =
2017-10-18 01:15 METAR KUKT 180515Z AUTO 00000KT 10SM CLR 04/03 A3031 RMK AO1 =
2017-10-18 00:55 METAR KUKT 180455Z AUTO 00000KT 10SM CLR 03/03 A3031 RMK AO1 =
2017-10-18 00:35 METAR KUKT 180435Z AUTO 00000KT 10SM CLR 04/03 A3031 RMK AO1 =
2017-10-18 00:15 METAR KUKT 180415Z AUTO 00000KT 10SM CLR 04/03 A3032 RMK AO1 =
2017-10-17 23:55 METAR KUKT 180355Z AUTO 00000KT 10SM CLR 04/03 A3031 RMK AO1 =
2017-10-17 23:35 METAR KUKT 180335Z AUTO 00000KT 10SM CLR 04/03 A3031 RMK AO1 =
2017-10-17 23:15 METAR KUKT 180315Z AUTO 00000KT 10SM CLR 04/03 A3031 RMK AO1 =
2017-10-17 22:55 METAR KUKT 180255Z AUTO 00000KT 10SM CLR 04/03 A3031 RMK AO1 =
2017-10-17 22:35 METAR KUKT 180235Z AUTO 00000KT 10SM CLR 05/03 A3031 RMK AO1 =
2017-10-17 22:15 METAR KUKT 180215Z AUTO 00000KT 10SM CLR 05/03 A3031 RMK AO1 =
2017-10-17 21:55 METAR KUKT 180155Z AUTO 00000KT 10SM CLR 05/03 A3030 RMK AO1 =
2017-10-17 21:35 METAR KUKT 180135Z AUTO 00000KT 10SM CLR 05/04 A3030 RMK AO1 =
2017-10-17 21:15 METAR KUKT 180115Z AUTO 00000KT 10SM CLR 05/04 A3030 RMK AO1 =
2017-10-17 20:55 METAR KUKT 180055Z AUTO 00000KT 10SM CLR 05/03 A3030 RMK AO1 =
2017-10-17 20:35 METAR KUKT 180035Z AUTO 00000KT 10SM CLR 06/04 A3030 RMK AO1 =
2017-10-17 20:15 METAR KUKT 180015Z AUTO 00000KT 10SM CLR 06/03 A3030 RMK AO1 =
2017-10-17 19:55 METAR KUKT 172355Z AUTO 00000KT 10SM CLR 07/03 A3029 RMK AO1 =
2017-10-17 19:35 METAR KUKT 172335Z AUTO 00000KT 10SM CLR 07/03 A3029 RMK AO1 =
2017-10-17 19:15 METAR KUKT 172315Z AUTO 00000KT 10SM CLR 08/04 A3029 RMK AO1 =
2017-10-17 18:55 METAR KUKT 172255Z AUTO 00000KT 10SM CLR 09/04 A3028 RMK AO1 =
2017-10-17 18:35 METAR KUKT 172235Z AUTO 00000KT 10SM CLR 10/03 A3027 RMK AO1 =
2017-10-17 18:15 METAR KUKT 172215Z AUTO 22003KT 10SM CLR 13/01 A3027 RMK AO1 =
2017-10-17 17:55 METAR KUKT 172155Z AUTO 24004KT 10SM CLR 14/00 A3027 RMK AO1 =
2017-10-17 17:35 METAR KUKT 172135Z AUTO 23006KT 10SM CLR 14/00 A3027 RMK AO1 =
2017-10-17 17:15 METAR KUKT 172115Z AUTO 23005KT 10SM CLR 15/M01 A3027 RMK AO1 =
2017-10-17 16:55 METAR KUKT 172055Z AUTO 21007KT 10SM CLR 15/00 A3027 RMK AO1 =
2017-10-17 16:35 METAR KUKT 172035Z AUTO 21005KT 10SM CLR 15/00 A3027 RMK AO1 =
2017-10-17 16:15 METAR KUKT 172015Z AUTO 28003KT 10SM CLR 15/00 A3027 RMK AO1 =
2017-10-17 15:55 METAR KUKT 171955Z AUTO 24006KT 10SM CLR 15/00 A3028 RMK AO1 =
2017-10-17 15:35 METAR KUKT 171935Z AUTO 27004KT 10SM CLR 15/00 A3028 RMK AO1 =
2017-10-17 15:15 METAR KUKT 171915Z AUTO 28004KT 10SM CLR 15/00 A3028 RMK AO1 =
2017-10-17 14:55 METAR KUKT 171855Z AUTO 26004KT 10SM CLR 15/00 A3029 RMK AO1 =
2017-10-17 14:35 METAR KUKT 171835Z AUTO 31005KT 10SM CLR 14/00 A3029 RMK AO1 =
2017-10-17 14:15 METAR KUKT 171815Z AUTO 29004KT 10SM CLR 14/00 A3030 RMK AO1 =
2017-10-17 13:55 METAR KUKT 171755Z AUTO 33005KT 10SM CLR 14/01 A3030 RMK AO1 =
2017-10-17 13:35 METAR KUKT 171735Z AUTO 30005KT 10SM CLR 13/00 A3031 RMK AO1 =
2017-10-17 13:15 METAR KUKT 171715Z AUTO 26003KT 10SM CLR 13/01 A3032 RMK AO1 =
2017-10-17 12:55 METAR KUKT 171655Z AUTO 28004KT 10SM CLR 12/01 A3033 RMK AO1 =
2017-10-17 12:35 METAR KUKT 171635Z AUTO 23003KT 10SM CLR 12/00 A3034 RMK AO1 =
2017-10-17 12:15 METAR KUKT 171615Z AUTO 00000KT 10SM CLR 12/01 A3034 RMK AO1 =
2017-10-17 11:55 METAR KUKT 171555Z AUTO 02003KT 10SM CLR 11/00 A3035 RMK AO1 =
2017-10-17 11:35 METAR KUKT 171535Z AUTO 32003KT 10SM CLR 10/01 A3035 RMK AO1 =
2017-10-17 11:15 METAR KUKT 171515Z AUTO 06003KT 10SM CLR 10/00 A3036 RMK AO1 =
2017-10-17 10:55 METAR KUKT 171455Z AUTO 27003KT 10SM CLR 09/01 A3036 RMK AO1 =
2017-10-17 10:35 METAR KUKT 171435Z AUTO 05003KT 10SM CLR 09/01 A3037 RMK AO1 =
2017-10-17 10:15 METAR KUKT 171415Z AUTO 07004KT 10SM CLR 08/01 A3037 RMK AO1 =
2017-10-17 09:55 METAR KUKT 171355Z AUTO 06004KT 10SM CLR 08/01 A3037 RMK AO1 =
2017-10-17 09:35 METAR KUKT 171335Z AUTO 02003KT 10SM CLR 07/01 A3037 RMK AO1 =
2017-10-17 09:15 METAR KUKT 171315Z AUTO 01005KT 10SM CLR 07/00 A3037 RMK AO1 =
2017-10-17 08:55 METAR KUKT 171255Z AUTO 36003KT 10SM CLR 06/00 A3037 RMK AO1 =
2017-10-17 08:35 METAR KUKT 171235Z AUTO 36003KT 10SM CLR 05/00 A3036 RMK AO1 =
2017-10-17 08:15 METAR KUKT 171215Z AUTO 36003KT 10SM CLR 04/00 A3035 RMK AO1 =
2017-10-17 07:55 METAR KUKT 171155Z AUTO 00000KT 10SM CLR 02/00 A3034 RMK AO1 =
2017-10-17 07:35 METAR KUKT 171135Z AUTO 35003KT 10SM CLR 03/00 A3033 RMK AO1 =
2017-10-17 07:15 METAR KUKT 171115Z AUTO 34004KT 10SM CLR 02/00 A3033 RMK AO1 =
2017-10-17 06:55 METAR KUKT 171055Z AUTO 00000KT 10SM CLR 01/00 A3034 RMK AO1 =
2017-10-17 06:35 METAR KUKT 171035Z AUTO 00000KT 10SM CLR 02/00 A3033 RMK AO1 =
2017-10-17 06:15 METAR KUKT 171015Z AUTO 33003KT 10SM CLR 01/00 A3032 RMK AO1 =
2017-10-17 05:55 METAR KUKT 170955Z AUTO 00000KT 10SM CLR 02/00 A3032 RMK AO1 =
2017-10-17 05:35 METAR KUKT 170935Z AUTO 00000KT 10SM CLR 01/00 A3031 RMK AO1 =
2017-10-17 05:15 METAR KUKT 170915Z AUTO 00000KT 10SM CLR 02/00 A3030 RMK AO1 =
2017-10-17 04:55 METAR KUKT 170855Z AUTO 00000KT 10SM CLR 03/00 A3029 RMK AO1 =
2017-10-17 04:35 METAR KUKT 170835Z AUTO 00000KT 10SM CLR 04/00 A3029 RMK AO1 =
2017-10-17 04:15 METAR KUKT 170815Z AUTO 36003KT 10SM CLR 04/00 A3028 RMK AO1 =
2017-10-17 03:55 METAR KUKT 170755Z AUTO 33003KT 10SM CLR 04/00 A3027 RMK AO1 =

Support USWX by starting your Amazon purchase here.